sensor_id;sensor_type;location;lat;lon;timestamp;temperature;humidity
9975;DHT22;5028;50.974;4.968;2022-10-16T00:00:14;13.50;99.90
9975;DHT22;5028;50.974;4.968;2022-10-16T00:02:51;13.50;99.90
9975;DHT22;5028;50.974;4.968;2022-10-16T00:05:19;13.50;99.90
9975;DHT22;5028;50.974;4.968;2022-10-16T00:07:55;13.50;99.90
9975;DHT22;5028;50.974;4.968;2022-10-16T00:10:24;13.50;99.90
9975;DHT22;5028;50.974;4.968;2022-10-16T00:12:59;13.50;99.90
9975;DHT22;5028;50.974;4.968;2022-10-16T00:15:28;13.50;99.90
9975;DHT22;5028;50.974;4.968;2022-10-16T00:18:05;13.40;99.90
9975;DHT22;5028;50.974;4.968;2022-10-16T00:20:34;13.40;99.90
9975;DHT22;5028;50.974;4.968;2022-10-16T00:23:10;13.40;99.90
9975;DHT22;5028;50.974;4.968;2022-10-16T00:25:38;13.30;99.90
9975;DHT22;5028;50.974;4.968;2022-10-16T00:28:13;13.40;99.90
9975;DHT22;5028;50.974;4.968;2022-10-16T00:30:42;13.40;99.90
9975;DHT22;5028;50.974;4.968;2022-10-16T00:33:18;13.30;99.90
9975;DHT22;5028;50.974;4.968;2022-10-16T00:35:47;13.30;99.90
9975;DHT22;5028;50.974;4.968;2022-10-16T00:38:29;13.30;99.90
9975;DHT22;5028;50.974;4.968;2022-10-16T00:40:58;13.30;99.90
9975;DHT22;5028;50.974;4.968;2022-10-16T00:43:37;13.30;99.90
9975;DHT22;5028;50.974;4.968;2022-10-16T00:46:13;13.30;99.90
9975;DHT22;5028;50.974;4.968;2022-10-16T00:48:52;13.20;99.90
9975;DHT22;5028;50.974;4.968;2022-10-16T00:51:25;13.20;99.90
9975;DHT22;5028;50.974;4.968;2022-10-16T00:54:06;13.20;99.90
9975;DHT22;5028;50.974;4.968;2022-10-16T00:56:34;13.20;99.90
9975;DHT22;5028;50.974;4.968;2022-10-16T00:59:14;13.20;99.90
9975;DHT22;5028;50.974;4.968;2022-10-16T01:01:43;13.20;99.90
9975;DHT22;5028;50.974;4.968;2022-10-16T01:04:20;13.10;99.90
9975;DHT22;5028;50.974;4.968;2022-10-16T01:06:55;13.10;99.90
9975;DHT22;5028;50.974;4.968;2022-10-16T01:09:39;13.10;99.90
9975;DHT22;5028;50.974;4.968;2022-10-16T01:12:12;13.10;99.90
9975;DHT22;5028;50.974;4.968;2022-10-16T01:14:53;13.10;99.90
9975;DHT22;5028;50.974;4.968;2022-10-16T01:17:28;13.00;99.90
9975;DHT22;5028;50.974;4.968;2022-10-16T01:20:11;13.00;99.90
9975;DHT22;5028;50.974;4.968;2022-10-16T01:23:01;13.00;99.90
9975;DHT22;5028;50.974;4.968;2022-10-16T01:25:59;13.00;99.90
9975;DHT22;5028;50.974;4.968;2022-10-16T01:28:34;12.90;99.90
9975;DHT22;5028;50.974;4.968;2022-10-16T01:31:14;12.90;99.90
9975;DHT22;5028;50.974;4.968;2022-10-16T01:33:47;12.90;99.90
9975;DHT22;5028;50.974;4.968;2022-10-16T01:36:26;12.90;99.90
9975;DHT22;5028;50.974;4.968;2022-10-16T01:39:01;12.90;99.90
9975;DHT22;5028;50.974;4.968;2022-10-16T01:41:39;12.90;99.90
9975;DHT22;5028;50.974;4.968;2022-10-16T01:44:20;12.90;99.90
9975;DHT22;5028;50.974;4.968;2022-10-16T01:46:57;12.90;99.90
9975;DHT22;5028;50.974;4.968;2022-10-16T01:49:31;12.90;99.90
9975;DHT22;5028;50.974;4.968;2022-10-16T01:52:10;13.00;99.90
9975;DHT22;5028;50.974;4.968;2022-10-16T01:54:42;13.00;99.90
9975;DHT22;5028;50.974;4.968;2022-10-16T01:57:20;13.00;99.90
9975;DHT22;5028;50.974;4.968;2022-10-16T01:59:54;13.00;99.90
9975;DHT22;5028;50.974;4.968;2022-10-16T02:02:30;13.00;99.90
9975;DHT22;5028;50.974;4.968;2022-10-16T02:05:04;13.00;99.90
9975;DHT22;5028;50.974;4.968;2022-10-16T02:07:40;13.00;99.90
9975;DHT22;5028;50.974;4.968;2022-10-16T02:10:09;13.00;99.90
9975;DHT22;5028;50.974;4.968;2022-10-16T02:12:49;13.00;99.90
9975;DHT22;5028;50.974;4.968;2022-10-16T02:15:20;13.00;99.90
9975;DHT22;5028;50.974;4.968;2022-10-16T02:17:56;12.90;99.90
9975;DHT22;5028;50.974;4.968;2022-10-16T02:20:28;12.90;99.90
9975;DHT22;5028;50.974;4.968;2022-10-16T02:23:04;12.90;99.90
9975;DHT22;5028;50.974;4.968;2022-10-16T02:25:35;12.90;99.90
9975;DHT22;5028;50.974;4.968;2022-10-16T02:28:15;12.90;99.90
9975;DHT22;5028;50.974;4.968;2022-10-16T02:30:49;12.90;99.90
9975;DHT22;5028;50.974;4.968;2022-10-16T02:33:27;12.90;99.90
9975;DHT22;5028;50.974;4.968;2022-10-16T02:35:57;12.90;99.90
9975;DHT22;5028;50.974;4.968;2022-10-16T02:38:40;12.90;99.90
9975;DHT22;5028;50.974;4.968;2022-10-16T02:41:22;13.00;99.90
9975;DHT22;5028;50.974;4.968;2022-10-16T02:43:58;12.90;99.90
9975;DHT22;5028;50.974;4.968;2022-10-16T02:46:28;12.90;99.90
9975;DHT22;5028;50.974;4.968;2022-10-16T02:49:03;12.90;99.90
9975;DHT22;5028;50.974;4.968;2022-10-16T02:51:31;12.90;99.90
9975;DHT22;5028;50.974;4.968;2022-10-16T02:54:07;12.90;99.90
9975;DHT22;5028;50.974;4.968;2022-10-16T02:56:36;12.90;99.90
9975;DHT22;5028;50.974;4.968;2022-10-16T02:59:11;12.90;99.90
9975;DHT22;5028;50.974;4.968;2022-10-16T03:01:41;12.90;99.90
9975;DHT22;5028;50.974;4.968;2022-10-16T03:04:16;12.90;99.90
9975;DHT22;5028;50.974;4.968;2022-10-16T03:06:44;12.90;99.90
9975;DHT22;5028;50.974;4.968;2022-10-16T03:09:19;12.80;99.90
9975;DHT22;5028;50.974;4.968;2022-10-16T03:11:47;12.90;99.90
9975;DHT22;5028;50.974;4.968;2022-10-16T03:14:22;12.80;99.90
9975;DHT22;5028;50.974;4.968;2022-10-16T03:16:52;12.80;99.90
9975;DHT22;5028;50.974;4.968;2022-10-16T03:19:27;12.80;99.90
9975;DHT22;5028;50.974;4.968;2022-10-16T03:21:55;12.80;99.90
9975;DHT22;5028;50.974;4.968;2022-10-16T03:24:31;12.80;99.90
9975;DHT22;5028;50.974;4.968;2022-10-16T03:26:59;12.80;99.90
9975;DHT22;5028;50.974;4.968;2022-10-16T03:29:35;12.80;99.90
9975;DHT22;5028;50.974;4.968;2022-10-16T03:32:05;12.80;99.90
9975;DHT22;5028;50.974;4.968;2022-10-16T03:34:40;12.90;99.90
9975;DHT22;5028;50.974;4.968;2022-10-16T03:37:08;12.80;99.90
9975;DHT22;5028;50.974;4.968;2022-10-16T03:39:49;12.80;99.90
9975;DHT22;5028;50.974;4.968;2022-10-16T03:42:25;12.90;99.90
9975;DHT22;5028;50.974;4.968;2022-10-16T03:44:53;12.90;99.90
9975;DHT22;5028;50.974;4.968;2022-10-16T03:47:29;12.80;99.90
9975;DHT22;5028;50.974;4.968;2022-10-16T03:50:00;12.90;99.90
9975;DHT22;5028;50.974;4.968;2022-10-16T03:52:35;12.90;99.90
9975;DHT22;5028;50.974;4.968;2022-10-16T03:55:04;12.90;99.90
9975;DHT22;5028;50.974;4.968;2022-10-16T03:57:39;12.90;99.90
9975;DHT22;5028;50.974;4.968;2022-10-16T04:00:08;12.80;99.90
9975;DHT22;5028;50.974;4.968;2022-10-16T04:02:45;12.90;99.90
9975;DHT22;5028;50.974;4.968;2022-10-16T04:05:14;12.90;99.90
9975;DHT22;5028;50.974;4.968;2022-10-16T04:07:49;12.90;99.90
9975;DHT22;5028;50.974;4.968;2022-10-16T04:10:17;12.90;99.90
9975;DHT22;5028;50.974;4.968;2022-10-16T04:12:52;12.90;99.90
9975;DHT22;5028;50.974;4.968;2022-10-16T04:15:23;12.90;99.90
9975;DHT22;5028;50.974;4.968;2022-10-16T04:17:59;12.90;99.90
9975;DHT22;5028;50.974;4.968;2022-10-16T04:20:28;12.90;99.90
9975;DHT22;5028;50.974;4.968;2022-10-16T04:23:03;12.90;99.90
9975;DHT22;5028;50.974;4.968;2022-10-16T04:25:31;12.90;99.90
9975;DHT22;5028;50.974;4.968;2022-10-16T04:28:06;12.90;99.90
9975;DHT22;5028;50.974;4.968;2022-10-16T04:30:37;12.90;99.90
9975;DHT22;5028;50.974;4.968;2022-10-16T04:33:13;12.90;99.90
9975;DHT22;5028;50.974;4.968;2022-10-16T04:35:41;12.90;99.90
9975;DHT22;5028;50.974;4.968;2022-10-16T04:38:17;12.90;99.90
9975;DHT22;5028;50.974;4.968;2022-10-16T04:40:45;12.90;99.90
9975;DHT22;5028;50.974;4.968;2022-10-16T04:43:27;12.90;99.90
9975;DHT22;5028;50.974;4.968;2022-10-16T04:46:00;12.90;99.90
9975;DHT22;5028;50.974;4.968;2022-10-16T04:48:39;12.90;99.90
9975;DHT22;5028;50.974;4.968;2022-10-16T04:51:08;12.90;99.90
9975;DHT22;5028;50.974;4.968;2022-10-16T04:53:43;12.90;99.90
9975;DHT22;5028;50.974;4.968;2022-10-16T04:56:11;12.90;99.90
9975;DHT22;5028;50.974;4.968;2022-10-16T04:58:46;12.90;99.90
9975;DHT22;5028;50.974;4.968;2022-10-16T05:01:15;12.90;99.90
9975;DHT22;5028;50.974;4.968;2022-10-16T05:03:51;12.80;99.90
9975;DHT22;5028;50.974;4.968;2022-10-16T05:06:20;12.80;99.90
9975;DHT22;5028;50.974;4.968;2022-10-16T05:08:55;12.80;99.90
9975;DHT22;5028;50.974;4.968;2022-10-16T05:11:24;12.80;99.90
9975;DHT22;5028;50.974;4.968;2022-10-16T05:13:58;12.80;99.90
9975;DHT22;5028;50.974;4.968;2022-10-16T05:16:27;12.70;99.90
9975;DHT22;5028;50.974;4.968;2022-10-16T05:19:04;12.70;99.90
9975;DHT22;5028;50.974;4.968;2022-10-16T05:21:52;12.70;99.90
9975;DHT22;5028;50.974;4.968;2022-10-16T05:24:27;12.70;99.90
9975;DHT22;5028;50.974;4.968;2022-10-16T05:26:56;12.70;99.90
9975;DHT22;5028;50.974;4.968;2022-10-16T05:29:31;12.70;99.90
9975;DHT22;5028;50.974;4.968;2022-10-16T05:31:59;12.70;99.90
9975;DHT22;5028;50.974;4.968;2022-10-16T05:34:36;12.70;99.90
9975;DHT22;5028;50.974;4.968;2022-10-16T05:37:05;12.70;99.90
9975;DHT22;5028;50.974;4.968;2022-10-16T05:39:47;12.70;99.90
9975;DHT22;5028;50.974;4.968;2022-10-16T05:42:28;12.70;99.90
9975;DHT22;5028;50.974;4.968;2022-10-16T05:45:04;12.70;99.90
9975;DHT22;5028;50.974;4.968;2022-10-16T05:47:32;12.60;99.90
9975;DHT22;5028;50.974;4.968;2022-10-16T05:50:09;12.60;99.90
9975;DHT22;5028;50.974;4.968;2022-10-16T05:52:37;12.60;99.90
9975;DHT22;5028;50.974;4.968;2022-10-16T05:55:13;12.60;99.90
9975;DHT22;5028;50.974;4.968;2022-10-16T05:57:42;12.60;99.90
9975;DHT22;5028;50.974;4.968;2022-10-16T06:00:17;12.60;99.90
9975;DHT22;5028;50.974;4.968;2022-10-16T06:02:45;12.60;99.90
9975;DHT22;5028;50.974;4.968;2022-10-16T06:05:23;12.60;99.90
9975;DHT22;5028;50.974;4.968;2022-10-16T06:07:51;12.60;99.90
9975;DHT22;5028;50.974;4.968;2022-10-16T06:10:26;12.60;99.90
9975;DHT22;5028;50.974;4.968;2022-10-16T06:12:55;12.50;99.90
9975;DHT22;5028;50.974;4.968;2022-10-16T06:15:30;12.50;99.90
9975;DHT22;5028;50.974;4.968;2022-10-16T06:17:58;12.50;99.90
9975;DHT22;5028;50.974;4.968;2022-10-16T06:20:36;12.50;99.90
9975;DHT22;5028;50.974;4.968;2022-10-16T06:23:04;12.50;99.90
9975;DHT22;5028;50.974;4.968;2022-10-16T06:25:39;12.50;99.90
9975;DHT22;5028;50.974;4.968;2022-10-16T06:28:07;12.50;99.90
9975;DHT22;5028;50.974;4.968;2022-10-16T06:30:42;12.50;99.90
9975;DHT22;5028;50.974;4.968;2022-10-16T06:33:12;12.50;99.90
9975;DHT22;5028;50.974;4.968;2022-10-16T06:35:48;12.50;99.90
9975;DHT22;5028;50.974;4.968;2022-10-16T06:38:17;12.50;99.90
9975;DHT22;5028;50.974;4.968;2022-10-16T06:40:59;12.50;99.90
9975;DHT22;5028;50.974;4.968;2022-10-16T06:43:28;12.50;99.90
9975;DHT22;5028;50.974;4.968;2022-10-16T06:46:06;12.50;99.90
9975;DHT22;5028;50.974;4.968;2022-10-16T06:48:36;12.60;99.90
9975;DHT22;5028;50.974;4.968;2022-10-16T06:51:14;12.60;99.90
9975;DHT22;5028;50.974;4.968;2022-10-16T06:53:44;12.60;99.90
9975;DHT22;5028;50.974;4.968;2022-10-16T06:56:30;12.60;99.90
9975;DHT22;5028;50.974;4.968;2022-10-16T06:59:00;12.60;99.90
9975;DHT22;5028;50.974;4.968;2022-10-16T07:01:35;12.70;99.90
9975;DHT22;5028;50.974;4.968;2022-10-16T07:04:04;12.70;99.90
9975;DHT22;5028;50.974;4.968;2022-10-16T07:06:40;12.70;99.90
9975;DHT22;5028;50.974;4.968;2022-10-16T07:09:13;12.80;99.90
9975;DHT22;5028;50.974;4.968;2022-10-16T07:11:52;12.80;99.90
9975;DHT22;5028;50.974;4.968;2022-10-16T07:14:21;12.90;99.90
9975;DHT22;5028;50.974;4.968;2022-10-16T07:16:57;12.90;99.90
9975;DHT22;5028;50.974;4.968;2022-10-16T07:19:26;13.00;99.90
9975;DHT22;5028;50.974;4.968;2022-10-16T07:22:03;13.00;99.90
9975;DHT22;5028;50.974;4.968;2022-10-16T07:24:31;13.10;99.90
9975;DHT22;5028;50.974;4.968;2022-10-16T07:27:07;13.20;99.90
9975;DHT22;5028;50.974;4.968;2022-10-16T07:29:36;13.30;99.90
9975;DHT22;5028;50.974;4.968;2022-10-16T07:32:11;13.40;99.90
9975;DHT22;5028;50.974;4.968;2022-10-16T07:34:40;13.40;99.90
9975;DHT22;5028;50.974;4.968;2022-10-16T07:37:17;13.50;99.90
9975;DHT22;5028;50.974;4.968;2022-10-16T07:39:45;13.50;99.90
9975;DHT22;5028;50.974;4.968;2022-10-16T07:42:20;13.50;99.90
9975;DHT22;5028;50.974;4.968;2022-10-16T07:44:55;13.60;99.90
9975;DHT22;5028;50.974;4.968;2022-10-16T07:47:30;13.60;99.90
9975;DHT22;5028;50.974;4.968;2022-10-16T07:49:58;13.60;99.90
9975;DHT22;5028;50.974;4.968;2022-10-16T07:52:35;13.70;99.90
9975;DHT22;5028;50.974;4.968;2022-10-16T07:55:05;13.70;99.90
9975;DHT22;5028;50.974;4.968;2022-10-16T07:57:40;13.70;99.90
9975;DHT22;5028;50.974;4.968;2022-10-16T08:00:15;13.80;99.90
9975;DHT22;5028;50.974;4.968;2022-10-16T08:02:44;13.80;99.90
9975;DHT22;5028;50.974;4.968;2022-10-16T08:05:19;13.80;99.90
9975;DHT22;5028;50.974;4.968;2022-10-16T08:07:50;13.90;99.90
9975;DHT22;5028;50.974;4.968;2022-10-16T08:10:26;14.00;99.90
9975;DHT22;5028;50.974;4.968;2022-10-16T08:12:55;14.00;99.90
9975;DHT22;5028;50.974;4.968;2022-10-16T08:15:30;14.10;99.90
9975;DHT22;5028;50.974;4.968;2022-10-16T08:18:00;14.10;99.90
9975;DHT22;5028;50.974;4.968;2022-10-16T08:20:35;14.20;99.90
9975;DHT22;5028;50.974;4.968;2022-10-16T08:23:05;14.20;99.90
9975;DHT22;5028;50.974;4.968;2022-10-16T08:25:34;14.30;99.90
9975;DHT22;5028;50.974;4.968;2022-10-16T08:28:10;14.40;99.90
9975;DHT22;5028;50.974;4.968;2022-10-16T08:30:45;14.40;99.90
9975;DHT22;5028;50.974;4.968;2022-10-16T08:33:14;14.50;99.90
9975;DHT22;5028;50.974;4.968;2022-10-16T08:35:53;14.50;99.90
9975;DHT22;5028;50.974;4.968;2022-10-16T08:38:23;14.60;99.90
9975;DHT22;5028;50.974;4.968;2022-10-16T08:41:31;14.60;99.90
9975;DHT22;5028;50.974;4.968;2022-10-16T08:44:31;14.70;99.90
9975;DHT22;5028;50.974;4.968;2022-10-16T08:47:17;14.70;99.90
9975;DHT22;5028;50.974;4.968;2022-10-16T08:49:59;14.70;99.90
9975;DHT22;5028;50.974;4.968;2022-10-16T08:52:41;14.80;99.90
9975;DHT22;5028;50.974;4.968;2022-10-16T08:55:28;14.90;99.90
9975;DHT22;5028;50.974;4.968;2022-10-16T08:58:12;15.00;99.90
9975;DHT22;5028;50.974;4.968;2022-10-16T09:00:42;15.10;99.90
9975;DHT22;5028;50.974;4.968;2022-10-16T09:03:28;15.10;99.90
9975;DHT22;5028;50.974;4.968;2022-10-16T09:06:25;15.20;99.90
9975;DHT22;5028;50.974;4.968;2022-10-16T09:09:15;15.30;99.90
9975;DHT22;5028;50.974;4.968;2022-10-16T09:11:51;15.40;99.90
9975;DHT22;5028;50.974;4.968;2022-10-16T09:14:41;15.40;99.90
9975;DHT22;5028;50.974;4.968;2022-10-16T09:17:33;15.40;99.90
9975;DHT22;5028;50.974;4.968;2022-10-16T09:20:22;15.50;99.90
9975;DHT22;5028;50.974;4.968;2022-10-16T09:22:56;15.50;99.90
9975;DHT22;5028;50.974;4.968;2022-10-16T09:25:35;15.60;99.90
9975;DHT22;5028;50.974;4.968;2022-10-16T09:28:08;15.70;99.90
9975;DHT22;5028;50.974;4.968;2022-10-16T09:30:43;15.70;99.90
9975;DHT22;5028;50.974;4.968;2022-10-16T09:33:12;15.80;99.90
9975;DHT22;5028;50.974;4.968;2022-10-16T09:35:49;15.80;99.90
9975;DHT22;5028;50.974;4.968;2022-10-16T09:38:24;15.90;99.90
9975;DHT22;5028;50.974;4.968;2022-10-16T09:41:02;15.90;99.90
9975;DHT22;5028;50.974;4.968;2022-10-16T09:43:41;16.00;99.90
9975;DHT22;5028;50.974;4.968;2022-10-16T09:46:24;16.10;99.90
9975;DHT22;5028;50.974;4.968;2022-10-16T09:49:03;16.20;99.90
9975;DHT22;5028;50.974;4.968;2022-10-16T09:51:33;16.30;99.90
9975;DHT22;5028;50.974;4.968;2022-10-16T09:54:17;16.40;99.90
9975;DHT22;5028;50.974;4.968;2022-10-16T09:56:47;16.60;99.90
9975;DHT22;5028;50.974;4.968;2022-10-16T09:59:26;16.70;99.90
9975;DHT22;5028;50.974;4.968;2022-10-16T10:02:01;16.80;99.90
9975;DHT22;5028;50.974;4.968;2022-10-16T10:04:46;16.90;99.90
9975;DHT22;5028;50.974;4.968;2022-10-16T10:07:24;17.10;99.90
9975;DHT22;5028;50.974;4.968;2022-10-16T10:10:00;17.30;99.90
9975;DHT22;5028;50.974;4.968;2022-10-16T10:12:31;17.40;99.90
9975;DHT22;5028;50.974;4.968;2022-10-16T10:15:12;17.30;99.90
9975;DHT22;5028;50.974;4.968;2022-10-16T10:17:48;17.20;99.90
9975;DHT22;5028;50.974;4.968;2022-10-16T10:20:26;17.20;99.90
9975;DHT22;5028;50.974;4.968;2022-10-16T10:22:56;17.10;99.90
9975;DHT22;5028;50.974;4.968;2022-10-16T10:25:41;17.10;99.90
9975;DHT22;5028;50.974;4.968;2022-10-16T10:28:44;17.30;99.90
9975;DHT22;5028;50.974;4.968;2022-10-16T10:31:28;17.40;99.90
9975;DHT22;5028;50.974;4.968;2022-10-16T10:34:24;17.40;99.90
9975;DHT22;5028;50.974;4.968;2022-10-16T10:37:04;17.60;99.90
9975;DHT22;5028;50.974;4.968;2022-10-16T10:39:43;17.90;99.90
9975;DHT22;5028;50.974;4.968;2022-10-16T10:42:33;18.30;99.90
9975;DHT22;5028;50.974;4.968;2022-10-16T10:45:16;18.80;99.90
9975;DHT22;5028;50.974;4.968;2022-10-16T10:48:03;19.20;99.90
9975;DHT22;5028;50.974;4.968;2022-10-16T10:50:41;19.70;99.90
9975;DHT22;5028;50.974;4.968;2022-10-16T10:53:34;20.10;99.90
9975;DHT22;5028;50.974;4.968;2022-10-16T10:56:16;20.40;99.90
9975;DHT22;5028;50.974;4.968;2022-10-16T11:01:56;20.50;99.90
9975;DHT22;5028;50.974;4.968;2022-10-16T11:04:46;20.30;99.90
9975;DHT22;5028;50.974;4.968;2022-10-16T11:07:23;20.20;99.90
9975;DHT22;5028;50.974;4.968;2022-10-16T11:10:02;20.10;99.90
9975;DHT22;5028;50.974;4.968;2022-10-16T11:12:37;20.00;99.90
9975;DHT22;5028;50.974;4.968;2022-10-16T11:15:16;19.90;99.90
9975;DHT22;5028;50.974;4.968;2022-10-16T11:17:50;19.70;99.90
9975;DHT22;5028;50.974;4.968;2022-10-16T11:20:31;19.50;99.90
9975;DHT22;5028;50.974;4.968;2022-10-16T11:23:05;19.40;99.90
9975;DHT22;5028;50.974;4.968;2022-10-16T11:25:43;19.30;99.90
9975;DHT22;5028;50.974;4.968;2022-10-16T11:28:14;19.50;99.90
9975;DHT22;5028;50.974;4.968;2022-10-16T11:30:59;19.70;99.90
9975;DHT22;5028;50.974;4.968;2022-10-16T11:33:32;19.80;99.90
9975;DHT22;5028;50.974;4.968;2022-10-16T11:36:16;19.80;99.90
9975;DHT22;5028;50.974;4.968;2022-10-16T11:38:51;19.90;99.90
9975;DHT22;5028;50.974;4.968;2022-10-16T11:41:34;19.70;99.90
9975;DHT22;5028;50.974;4.968;2022-10-16T11:44:19;19.70;99.90
9975;DHT22;5028;50.974;4.968;2022-10-16T11:47:01;19.70;99.90
9975;DHT22;5028;50.974;4.968;2022-10-16T11:49:58;19.70;99.90
9975;DHT22;5028;50.974;4.968;2022-10-16T11:52:41;20.00;99.90
9975;DHT22;5028;50.974;4.968;2022-10-16T11:55:15;20.40;99.90
9975;DHT22;5028;50.974;4.968;2022-10-16T11:57:53;20.40;99.90
9975;DHT22;5028;50.974;4.968;2022-10-16T12:00:26;20.30;99.90
9975;DHT22;5028;50.974;4.968;2022-10-16T12:03:08;20.10;99.90
9975;DHT22;5028;50.974;4.968;2022-10-16T12:05:54;20.10;99.90
9975;DHT22;5028;50.974;4.968;2022-10-16T12:08:33;20.20;99.90
9975;DHT22;5028;50.974;4.968;2022-10-16T12:11:21;19.90;99.90
9975;DHT22;5028;50.974;4.968;2022-10-16T12:14:06;20.10;99.90
9975;DHT22;5028;50.974;4.968;2022-10-16T12:16:37;20.10;99.90
9975;DHT22;5028;50.974;4.968;2022-10-16T12:19:13;20.10;99.90
9975;DHT22;5028;50.974;4.968;2022-10-16T12:21:43;19.90;99.90
9975;DHT22;5028;50.974;4.968;2022-10-16T12:24:34;19.90;99.90
9975;DHT22;5028;50.974;4.968;2022-10-16T12:27:05;19.80;99.90
9975;DHT22;5028;50.974;4.968;2022-10-16T12:29:41;19.80;99.90
9975;DHT22;5028;50.974;4.968;2022-10-16T12:32:26;19.70;99.90
9975;DHT22;5028;50.974;4.968;2022-10-16T12:35:20;19.70;99.90
9975;DHT22;5028;50.974;4.968;2022-10-16T12:37:50;19.80;99.90
9975;DHT22;5028;50.974;4.968;2022-10-16T12:40:35;19.90;99.90
9975;DHT22;5028;50.974;4.968;2022-10-16T12:43:27;20.00;99.90
9975;DHT22;5028;50.974;4.968;2022-10-16T12:46:19;19.90;99.90
9975;DHT22;5028;50.974;4.968;2022-10-16T12:48:49;19.80;99.90
9975;DHT22;5028;50.974;4.968;2022-10-16T12:51:36;19.70;99.90
9975;DHT22;5028;50.974;4.968;2022-10-16T12:54:12;19.70;99.90
9975;DHT22;5028;50.974;4.968;2022-10-16T12:57:01;19.70;99.90
9975;DHT22;5028;50.974;4.968;2022-10-16T12:59:38;19.70;99.90
9975;DHT22;5028;50.974;4.968;2022-10-16T13:02:39;19.70;99.90
9975;DHT22;5028;50.974;4.968;2022-10-16T13:05:28;19.70;99.90
9975;DHT22;5028;50.974;4.968;2022-10-16T13:08:11;19.70;99.90
9975;DHT22;5028;50.974;4.968;2022-10-16T13:10:58;19.70;99.90
9975;DHT22;5028;50.974;4.968;2022-10-16T13:13:55;19.70;99.90
9975;DHT22;5028;50.974;4.968;2022-10-16T13:16:34;19.70;99.90
9975;DHT22;5028;50.974;4.968;2022-10-16T13:19:18;19.70;99.90
9975;DHT22;5028;50.974;4.968;2022-10-16T13:21:59;19.70;99.90
9975;DHT22;5028;50.974;4.968;2022-10-16T13:24:49;19.70;99.90
9975;DHT22;5028;50.974;4.968;2022-10-16T13:27:30;19.80;99.90
9975;DHT22;5028;50.974;4.968;2022-10-16T13:30:12;19.70;99.90
9975;DHT22;5028;50.974;4.968;2022-10-16T13:32:45;19.70;99.90
9975;DHT22;5028;50.974;4.968;2022-10-16T13:35:26;19.70;99.90
9975;DHT22;5028;50.974;4.968;2022-10-16T13:38:13;19.70;99.90
9975;DHT22;5028;50.974;4.968;2022-10-16T13:40:56;19.70;99.90
9975;DHT22;5028;50.974;4.968;2022-10-16T13:43:44;19.80;99.90
9975;DHT22;5028;50.974;4.968;2022-10-16T13:46:23;19.80;99.90
9975;DHT22;5028;50.974;4.968;2022-10-16T13:48:59;19.80;99.90
9975;DHT22;5028;50.974;4.968;2022-10-16T13:51:34;19.80;99.90
9975;DHT22;5028;50.974;4.968;2022-10-16T13:54:03;19.70;99.90
9975;DHT22;5028;50.974;4.968;2022-10-16T13:56:39;19.70;99.90
9975;DHT22;5028;50.974;4.968;2022-10-16T13:59:24;19.70;99.90
9975;DHT22;5028;50.974;4.968;2022-10-16T14:02:08;19.80;99.90
9975;DHT22;5028;50.974;4.968;2022-10-16T14:04:46;19.80;99.90
9975;DHT22;5028;50.974;4.968;2022-10-16T14:07:20;19.80;99.90
9975;DHT22;5028;50.974;4.968;2022-10-16T14:10:01;19.70;99.90
9975;DHT22;5028;50.974;4.968;2022-10-16T14:12:30;19.60;99.90
9975;DHT22;5028;50.974;4.968;2022-10-16T14:15:16;19.60;99.90
9975;DHT22;5028;50.974;4.968;2022-10-16T14:17:50;19.50;99.90
9975;DHT22;5028;50.974;4.968;2022-10-16T14:20:28;19.50;99.90
9975;DHT22;5028;50.974;4.968;2022-10-16T14:23:02;19.40;99.90
9975;DHT22;5028;50.974;4.968;2022-10-16T14:25:37;19.40;99.90
9975;DHT22;5028;50.974;4.968;2022-10-16T14:28:16;19.40;99.90
9975;DHT22;5028;50.974;4.968;2022-10-16T14:30:53;19.40;99.90
9975;DHT22;5028;50.974;4.968;2022-10-16T14:33:31;19.40;99.90
9975;DHT22;5028;50.974;4.968;2022-10-16T14:36:12;19.40;99.90
9975;DHT22;5028;50.974;4.968;2022-10-16T14:38:43;19.40;99.90
9975;DHT22;5028;50.974;4.968;2022-10-16T14:41:30;19.30;99.90
9975;DHT22;5028;50.974;4.968;2022-10-16T14:44:02;19.30;99.90
9975;DHT22;5028;50.974;4.968;2022-10-16T14:46:39;19.30;99.90
9975;DHT22;5028;50.974;4.968;2022-10-16T14:49:17;19.40;99.90
9975;DHT22;5028;50.974;4.968;2022-10-16T14:51:52;19.40;99.90
9975;DHT22;5028;50.974;4.968;2022-10-16T14:54:21;19.40;99.90
9975;DHT22;5028;50.974;4.968;2022-10-16T14:56:58;19.40;99.90
9975;DHT22;5028;50.974;4.968;2022-10-16T14:59:30;19.30;99.90
9975;DHT22;5028;50.974;4.968;2022-10-16T15:02:18;19.30;99.90
9975;DHT22;5028;50.974;4.968;2022-10-16T15:04:48;19.20;99.90
9975;DHT22;5028;50.974;4.968;2022-10-16T15:07:24;19.30;99.90
9975;DHT22;5028;50.974;4.968;2022-10-16T15:09:53;19.30;99.90
9975;DHT22;5028;50.974;4.968;2022-10-16T15:12:29;19.30;99.90
9975;DHT22;5028;50.974;4.968;2022-10-16T15:14:58;19.20;99.90
9975;DHT22;5028;50.974;4.968;2022-10-16T15:17:33;19.20;99.90
9975;DHT22;5028;50.974;4.968;2022-10-16T15:20:04;19.10;99.90
9975;DHT22;5028;50.974;4.968;2022-10-16T15:22:39;19.00;99.90
9975;DHT22;5028;50.974;4.968;2022-10-16T15:25:29;19.00;99.90
9975;DHT22;5028;50.974;4.968;2022-10-16T15:28:05;19.00;99.90
9975;DHT22;5028;50.974;4.968;2022-10-16T15:30:34;18.90;99.90
9975;DHT22;5028;50.974;4.968;2022-10-16T15:33:13;18.90;99.90
9975;DHT22;5028;50.974;4.968;2022-10-16T15:35:46;18.80;99.90
9975;DHT22;5028;50.974;4.968;2022-10-16T15:38:22;18.80;99.90
9975;DHT22;5028;50.974;4.968;2022-10-16T15:40:51;18.80;99.90
9975;DHT22;5028;50.974;4.968;2022-10-16T15:43:33;18.80;99.90
9975;DHT22;5028;50.974;4.968;2022-10-16T15:46:04;18.80;99.90
9975;DHT22;5028;50.974;4.968;2022-10-16T15:48:39;18.70;99.90
9975;DHT22;5028;50.974;4.968;2022-10-16T15:51:10;18.70;99.90
9975;DHT22;5028;50.974;4.968;2022-10-16T15:53:44;18.60;99.90
9975;DHT22;5028;50.974;4.968;2022-10-16T15:56:14;18.60;99.90
9975;DHT22;5028;50.974;4.968;2022-10-16T15:58:49;18.50;99.90
9975;DHT22;5028;50.974;4.968;2022-10-16T16:01:18;18.40;99.90
9975;DHT22;5028;50.974;4.968;2022-10-16T16:03:54;18.40;99.90
9975;DHT22;5028;50.974;4.968;2022-10-16T16:06:24;18.30;99.90
9975;DHT22;5028;50.974;4.968;2022-10-16T16:08:59;18.20;99.90
9975;DHT22;5028;50.974;4.968;2022-10-16T16:11:29;18.10;99.90
9975;DHT22;5028;50.974;4.968;2022-10-16T16:14:04;18.10;99.90
9975;DHT22;5028;50.974;4.968;2022-10-16T16:16:33;18.00;99.90
9975;DHT22;5028;50.974;4.968;2022-10-16T16:19:10;17.90;99.90
9975;DHT22;5028;50.974;4.968;2022-10-16T16:21:40;17.90;99.90
9975;DHT22;5028;50.974;4.968;2022-10-16T16:24:16;17.80;99.90
9975;DHT22;5028;50.974;4.968;2022-10-16T16:26:44;17.80;99.90
9975;DHT22;5028;50.974;4.968;2022-10-16T16:29:19;17.80;99.90
9975;DHT22;5028;50.974;4.968;2022-10-16T16:31:48;17.80;99.90
9975;DHT22;5028;50.974;4.968;2022-10-16T16:34:24;17.70;99.90
9975;DHT22;5028;50.974;4.968;2022-10-16T16:36:54;17.70;99.90
9975;DHT22;5028;50.974;4.968;2022-10-16T16:39:30;17.60;99.90
9975;DHT22;5028;50.974;4.968;2022-10-16T16:42:05;17.60;99.90
9975;DHT22;5028;50.974;4.968;2022-10-16T16:44:40;17.50;99.90
9975;DHT22;5028;50.974;4.968;2022-10-16T16:47:09;17.50;99.90
9975;DHT22;5028;50.974;4.968;2022-10-16T16:49:45;17.40;99.90
9975;DHT22;5028;50.974;4.968;2022-10-16T16:52:15;17.40;99.90
9975;DHT22;5028;50.974;4.968;2022-10-16T16:54:50;17.40;99.90
9975;DHT22;5028;50.974;4.968;2022-10-16T16:57:20;17.40;99.90
9975;DHT22;5028;50.974;4.968;2022-10-16T16:59:55;17.30;99.90
9975;DHT22;5028;50.974;4.968;2022-10-16T17:02:23;17.30;99.90